Helena, Illinois
Current Conditions -  °F | °C
As of 2:29 PM on Monday 26 Jan 2015 (Local Time) from KLWV Reporting Station
Light Snow Light Snow  
Wind Chill: -5°   Ceiling: 3800
Heat Index: -1°   Visibility: 4mi
Dew Point: -5°   Wind: 8mph
Humidity: 75%   Direction: 260°W
Pressure: 29.96"   Gusts: NA
Location:  38.793°N, 87.8326°W
Report Text: KLWV 262029Z AUTO 26007KT 4SM -SN SCT019 BKN038 OVC048 M01/M05 A2996 RMK AO2 SNB15 P0000 T10111050
Loading
Personal Weather Stations






























Interactive Weather Map New forecast layout! Learn more

10-Day Weather Forecast

Advertisements
Track Severe Weather on mobile